Time;durP1;ratioP1;P1;durP2;ratioP2;P2;SDS_P1;SDS_P2;PMS_P1;PMS_P2;Temp;Humidity;BMP_temperature;BMP_pressure;BME280_temperature;BME280_humidity;BME280_pressure;Samples;Min_cycle;Max_cycle;Signal;HPM_P1;HPM_P2
2022/04/13 00:01:33;;;;;;;0.00;0.00;;;15.80;72.20;;;;;;4165358;28;20049;-70
2022/04/13 00:03:55;;;;;;;0.00;0.00;;;15.70;72.80;;;;;;4151562;28;20042;-71
2022/04/13 00:06:20;;;;;;;0.00;0.00;;;15.70;73.70;;;;;;4165029;28;20502;-67
2022/04/13 00:08:45;;;;;;;0.00;0.00;;;15.70;74.30;;;;;;4164518;28;20115;-71
2022/04/13 00:11:11;;;;;;;0.00;0.00;;;15.70;75.00;;;;;;4165865;28;20416;-68
2022/04/13 00:13:41;;;;;;;0.00;0.00;;;15.70;75.10;;;;;;4152210;28;20033;-70
2022/04/13 00:16:12;;;;;;;0.00;0.00;;;15.60;75.40;;;;;;4165249;28;20523;-67
2022/04/13 00:18:43;;;;;;;0.00;0.00;;;15.50;75.40;;;;;;4152125;28;20327;-68
2022/04/13 00:21:14;;;;;;;0.00;0.00;;;15.40;75.70;;;;;;4165357;28;20527;-70
2022/04/13 00:23:43;;;;;;;0.00;0.00;;;15.40;75.30;;;;;;4164827;28;20503;-70
2022/04/13 00:26:20;;;;;;;0.00;0.00;;;15.40;75.30;;;;;;4165783;28;20040;-69
2022/04/13 00:28:48;;;;;;;0.00;0.00;;;15.50;74.10;;;;;;4151032;28;20408;-67
2022/04/13 00:31:15;;;;;;;0.00;0.00;;;15.50;74.00;;;;;;4165613;28;20465;-69
2022/04/13 00:33:44;;;;;;;0.00;0.00;;;15.50;73.40;;;;;;4164626;28;20034;-69
2022/04/13 00:36:11;;;;;;;0.00;0.00;;;15.50;73.00;;;;;;4164716;28;20376;-69
2022/04/13 00:38:41;;;;;;;0.00;0.00;;;15.60;72.70;;;;;;4165679;28;20060;-70
2022/04/13 00:41:12;;;;;;;0.00;0.00;;;15.60;72.30;;;;;;4151530;28;20047;-69
2022/04/13 00:43:39;;;;;;;0.00;0.00;;;15.60;72.00;;;;;;4151673;28;20057;-70
2022/04/13 00:46:06;;;;;;;0.00;0.00;;;15.60;71.80;;;;;;4150292;28;20132;-68
2022/04/13 00:48:42;;;;;;;0.00;0.00;;;15.50;72.00;;;;;;4164601;28;20042;-67
2022/04/13 00:51:14;;;;;;;0.00;0.00;;;15.50;72.00;;;;;;4164007;28;20053;-70
2022/04/13 00:53:51;;;;;;;0.00;0.00;;;15.40;71.50;;;;;;4165381;28;20041;-71
2022/04/13 00:56:27;;;;;;;0.00;0.00;;;15.30;71.90;;;;;;4165232;28;20045;-70
2022/04/13 00:58:54;;;;;;;0.00;0.00;;;15.20;72.20;;;;;;4169707;28;20122;-67
2022/04/13 01:01:29;;;;;;;0.00;0.00;;;15.20;72.40;;;;;;4181641;28;20436;-67
2022/04/13 01:04:04;;;;;;;0.00;0.00;;;15.20;73.10;;;;;;4168663;28;20053;-68
2022/04/13 01:06:37;;;;;;;0.00;0.00;;;15.10;73.90;;;;;;4154316;28;20360;-66
2022/04/13 01:09:13;;;;;;;0.00;0.00;;;15.10;74.50;;;;;;4180914;28;20452;-71
2022/04/13 01:11:49;;;;;;;0.00;0.00;;;15.10;75.10;;;;;;4142872;28;20034;-68
2022/04/13 01:14:17;;;;;;;0.00;0.00;;;14.90;75.70;;;;;;4181317;28;20045;-66
2022/04/13 01:16:40;;;;;;;0.00;0.00;;;14.80;75.90;;;;;;4166535;28;20315;-70
2022/04/13 01:19:18;;;;;;;0.00;0.00;;;14.80;76.20;;;;;;4181400;28;20044;-69
2022/04/13 01:21:59;;;;;;;0.00;0.00;;;14.80;76.60;;;;;;4168935;28;20144;-67
2022/04/13 01:24:22;;;;;;;0.00;0.00;;;14.80;76.70;;;;;;4153308;28;20052;-71
2022/04/13 01:26:47;;;;;;;0.00;0.00;;;14.80;77.20;;;;;;4152760;28;20046;-68
2022/04/13 01:29:16;;;;;;;0.00;0.00;;;14.70;78.10;;;;;;4139828;28;20141;-70
2022/04/13 01:31:42;;;;;;;0.00;0.00;;;14.60;78.60;;;;;;4153231;28;20460;-68
2022/04/13 01:34:06;;;;;;;0.00;0.00;;;14.50;78.70;;;;;;4152835;28;20351;-69
2022/04/13 01:36:28;;;;;;;0.00;0.00;;;14.50;78.30;;;;;;4166576;28;20045;-69
2022/04/13 01:38:53;;;;;;;0.00;0.00;;;14.40;78.30;;;;;;4166290;28;20057;-70
2022/04/13 01:41:20;;;;;;;0.00;0.00;;;14.50;78.10;;;;;;4139396;28;20089;-70
2022/04/13 01:43:42;;;;;;;0.00;0.00;;;14.50;77.80;;;;;;4152687;28;20042;-69
2022/04/13 01:46:06;;;;;;;0.00;0.00;;;14.60;77.50;;;;;;4152776;28;20046;-69
2022/04/13 01:48:31;;;;;;;0.00;0.00;;;14.60;77.30;;;;;;4139280;28;20078;-71
2022/04/13 01:50:59;;;;;;;0.00;0.00;;;14.60;77.10;;;;;;4152813;28;20064;-69
2022/04/13 01:53:21;;;;;;;0.00;0.00;;;14.60;77.30;;;;;;4152764;28;20445;-68
2022/04/13 01:55:47;;;;;;;0.00;0.00;;;14.60;76.60;;;;;;4152961;28;20052;-68
2022/04/13 01:58:13;;;;;;;0.00;0.00;;;14.60;76.70;;;;;;4153334;28;20045;-67
2022/04/13 02:00:37;;;;;;;0.00;0.00;;;14.60;76.80;;;;;;4166629;28;20560;-71
2022/04/13 02:02:59;;;;;;;0.00;0.00;;;14.60;76.60;;;;;;4166023;28;20061;-67
2022/04/13 02:05:23;;;;;;;0.00;0.00;;;14.70;76.40;;;;;;4152570;28;20132;-69
2022/04/13 02:07:45;;;;;;;0.00;0.00;;;14.70;76.20;;;;;;4152632;28;20431;-69
2022/04/13 02:10:09;;;;;;;0.00;0.00;;;14.60;76.30;;;;;;4138915;28;20051;-70
2022/04/13 02:12:34;;;;;;;0.00;0.00;;;14.50;76.40;;;;;;4181129;28;20128;-67
2022/04/13 02:14:58;;;;;;;0.00;0.00;;;14.60;76.20;;;;;;4165899;28;20125;-69
2022/04/13 02:17:21;;;;;;;0.00;0.00;;;14.60;76.10;;;;;;4166509;28;20126;-68
2022/04/13 02:19:45;;;;;;;0.00;0.00;;;14.60;76.00;;;;;;4152778;28;20048;-70
2022/04/13 02:22:08;;;;;;;0.00;0.00;;;14.50;76.00;;;;;;4166313;28;20071;-69
2022/04/13 02:24:50;;;;;;;0.00;0.00;;;14.40;75.80;;;;;;4151983;28;20056;-66
2022/04/13 02:27:15;;;;;;;0.00;0.00;;;14.20;76.10;;;;;;4165875;28;20071;-70
2022/04/13 02:29:42;;;;;;;0.00;0.00;;;14.00;76.80;;;;;;4139310;28;20042;-68
2022/04/13 02:32:05;;;;;;;0.00;0.00;;;13.90;76.90;;;;;;4181141;28;20124;-68
2022/04/13 02:34:27;;;;;;;0.00;0.00;;;14.00;76.60;;;;;;4169518;28;20056;-70
2022/04/13 02:36:51;;;;;;;0.00;0.00;;;14.00;76.30;;;;;;4169047;28;20057;-67
2022/04/13 02:39:13;;;;;;;0.00;0.00;;;14.10;76.00;;;;;;4169307;28;20088;-68
2022/04/13 02:41:36;;;;;;;0.00;0.00;;;14.10;75.70;;;;;;4155634;28;20143;-70
2022/04/13 02:43:58;;;;;;;0.00;0.00;;;14.10;75.60;;;;;;4169182;28;20045;-69
2022/04/13 02:46:24;;;;;;;0.00;0.00;;;14.20;75.50;;;;;;4169209;28;20049;-68
2022/04/13 02:48:46;;;;;;;0.00;0.00;;;14.20;75.30;;;;;;4154640;28;20050;-69
2022/04/13 02:51:13;;;;;;;0.00;0.00;;;14.20;75.30;;;;;;4155263;28;20080;-68
2022/04/13 02:53:35;;;;;;;0.00;0.00;;;14.20;75.30;;;;;;4155320;28;20054;-68
2022/04/13 02:55:58;;;;;;;0.00;0.00;;;14.20;75.20;;;;;;4169037;28;20068;-68
2022/04/13 02:58:22;;;;;;;0.00;0.00;;;14.20;75.40;;;;;;4168842;28;20049;-69
2022/04/13 03:00:49;;;;;;;0.00;0.00;;;14.30;75.60;;;;;;4154906;28;20072;-66
2022/04/13 03:03:14;;;;;;;0.00;0.00;;;14.30;76.00;;;;;;4154996;28;20049;-70
2022/04/13 03:05:38;;;;;;;0.00;0.00;;;14.30;75.40;;;;;;4168566;28;20467;-71
2022/04/13 03:08:03;;;;;;;0.00;0.00;;;14.30;75.30;;;;;;4169043;28;20053;-68
2022/04/13 03:10:27;;;;;;;0.00;0.00;;;14.30;75.30;;;;;;4155179;28;20060;-68
2022/04/13 03:12:49;;;;;;;0.00;0.00;;;14.30;75.30;;;;;;4168450;28;20045;-68
2022/04/13 03:15:14;;;;;;;0.00;0.00;;;14.30;75.50;;;;;;4168875;28;20045;-68
2022/04/13 03:17:40;;;;;;;0.00;0.00;;;14.20;76.20;;;;;;4155478;28;20095;-69
2022/04/13 03:20:02;;;;;;;0.00;0.00;;;14.20;75.60;;;;;;4155161;28;20057;-67
2022/04/13 03:22:27;;;;;;;0.00;0.00;;;14.20;75.50;;;;;;4154817;28;20181;-68
2022/04/13 03:24:54;;;;;;;0.00;0.00;;;14.10;75.60;;;;;;4168468;28;20136;-68
2022/04/13 03:27:19;;;;;;;0.00;0.00;;;14.10;75.70;;;;;;4168442;28;20399;-72
2022/04/13 03:29:41;;;;;;;0.00;0.00;;;14.10;75.70;;;;;;4154662;28;20041;-67
2022/04/13 03:32:05;;;;;;;0.00;0.00;;;14.10;75.80;;;;;;4154888;28;20088;-69
2022/04/13 03:34:30;;;;;;;0.00;0.00;;;14.00;75.90;;;;;;4154555;28;20050;-69
2022/04/13 03:36:54;;;;;;;0.00;0.00;;;14.00;76.00;;;;;;4167909;28;20049;-67
2022/04/13 03:39:17;;;;;;;0.00;0.00;;;14.00;76.10;;;;;;4168399;28;20046;-69
2022/04/13 03:41:39;;;;;;;0.00;0.00;;;13.90;76.30;;;;;;4168303;28;20096;-68
2022/04/13 03:44:04;;;;;;;0.00;0.00;;;13.90;76.30;;;;;;4167904;28;20052;-67
2022/04/13 03:46:34;;;;;;;0.00;0.00;;;13.90;76.20;;;;;;4168294;28;20056;-71
2022/04/13 03:48:58;;;;;;;0.00;0.00;;;14.00;76.10;;;;;;4168261;28;20144;-70
2022/04/13 03:51:22;;;;;;;0.00;0.00;;;14.00;76.10;;;;;;4168577;28;20046;-66
2022/04/13 03:53:44;;;;;;;0.00;0.00;;;13.90;76.50;;;;;;4168787;28;20050;-66
2022/04/13 03:56:08;;;;;;;0.00;0.00;;;13.80;76.60;;;;;;4168415;28;20045;-67
2022/04/13 03:58:32;;;;;;;0.00;0.00;;;13.80;77.30;;;;;;4154415;28;20104;-71
2022/04/13 04:00:59;;;;;;;0.00;0.00;;;13.80;76.70;;;;;;4168106;28;20049;-69
2022/04/13 04:03:23;;;;;;;0.00;0.00;;;13.70;76.80;;;;;;4168596;28;20380;-71
2022/04/13 04:05:45;;;;;;;0.00;0.00;;;13.70;76.90;;;;;;4168248;28;20050;-70
2022/04/13 04:08:09;;;;;;;0.00;0.00;;;13.70;77.00;;;;;;4168182;28;20446;-71
2022/04/13 04:10:36;;;;;;;0.00;0.00;;;13.70;77.30;;;;;;4168241;28;20100;-69
2022/04/13 04:12:58;;;;;;;0.00;0.00;;;13.60;77.30;;;;;;4153863;28;20096;-68
2022/04/13 04:15:20;;;;;;;0.00;0.00;;;13.60;77.40;;;;;;4154278;28;20037;-68
2022/04/13 04:17:42;;;;;;;0.00;0.00;;;13.60;77.30;;;;;;4168194;28;20050;-69
2022/04/13 04:20:07;;;;;;;0.00;0.00;;;13.60;77.40;;;;;;4168221;28;20049;-68
2022/04/13 04:22:32;;;;;;;0.00;0.00;;;13.60;77.50;;;;;;4168191;28;20595;-71
2022/04/13 04:24:54;;;;;;;0.00;0.00;;;13.60;77.50;;;;;;4153905;28;20046;-68
2022/04/13 04:27:16;;;;;;;0.00;0.00;;;13.50;77.50;;;;;;4154148;28;20432;-71
2022/04/13 04:29:40;;;;;;;0.00;0.00;;;13.50;77.60;;;;;;4167954;28;20531;-67
2022/04/13 04:32:10;;;;;;;0.00;0.00;;;13.50;77.70;;;;;;4153945;28;20046;-70
2022/04/13 04:34:33;;;;;;;0.00;0.00;;;13.50;77.60;;;;;;4154358;28;20448;-67
2022/04/13 04:36:55;;;;;;;0.00;0.00;;;13.50;77.60;;;;;;4167647;28;20053;-72
2022/04/13 04:39:18;;;;;;;0.00;0.00;;;13.40;77.70;;;;;;4154303;28;20038;-68
2022/04/13 04:41:43;;;;;;;0.00;0.00;;;13.40;77.80;;;;;;4154222;28;20045;-68
2022/04/13 04:44:05;;;;;;;0.00;0.00;;;13.40;78.00;;;;;;4154203;28;20052;-70
2022/04/13 04:46:31;;;;;;;0.00;0.00;;;13.30;78.00;;;;;;4140177;28;20054;-68
2022/04/13 04:48:56;;;;;;;0.00;0.00;;;13.20;78.30;;;;;;4153597;28;20136;-70
2022/04/13 04:51:18;;;;;;;0.00;0.00;;;13.20;78.60;;;;;;4167873;28;20038;-70
2022/04/13 04:53:41;;;;;;;0.00;0.00;;;13.20;78.30;;;;;;4154081;28;20046;-69
2022/04/13 04:56:09;;;;;;;0.00;0.00;;;13.20;78.30;;;;;;4139385;28;20051;-70
2022/04/13 04:58:33;;;;;;;0.00;0.00;;;13.20;78.40;;;;;;4167241;28;20053;-68
2022/04/13 05:01:00;;;;;;;0.00;0.00;;;13.20;78.30;;;;;;4153451;28;20049;-71
2022/04/13 05:03:22;;;;;;;0.00;0.00;;;13.20;78.90;;;;;;4167487;28;20049;-71
2022/04/13 05:05:45;;;;;;;0.00;0.00;;;13.20;78.40;;;;;;4167401;28;20197;-70
2022/04/13 05:08:10;;;;;;;0.00;0.00;;;13.20;78.60;;;;;;4167330;28;20100;-71
2022/04/13 05:10:32;;;;;;;0.00;0.00;;;13.10;80.10;;;;;;4167426;28;20107;-70
2022/04/13 05:12:57;;;;;;;0.00;0.00;;;12.90;81.80;;;;;;4152875;28;20108;-70
2022/04/13 05:15:23;;;;;;;0.00;0.00;;;13.00;82.50;;;;;;4167276;28;20128;-68
2022/04/13 05:17:49;;;;;;;0.00;0.00;;;13.10;82.90;;;;;;4153407;28;20046;-70
2022/04/13 05:20:18;;;;;;;0.00;0.00;;;13.10;82.90;;;;;;4167231;28;20099;-70
2022/04/13 05:22:43;;;;;;;0.00;0.00;;;13.20;82.90;;;;;;4152928;28;20116;-68
2022/04/13 05:25:07;;;;;;;0.00;0.00;;;13.30;82.80;;;;;;4153811;28;20045;-66
2022/04/13 05:27:31;;;;;;;0.00;0.00;;;13.30;82.50;;;;;;4167033;28;20037;-69
2022/04/13 05:29:55;;;;;;;0.00;0.00;;;13.40;82.00;;;;;;4140013;28;20445;-69
2022/04/13 05:32:17;;;;;;;0.00;0.00;;;13.50;81.30;;;;;;4166937;28;20041;-68
2022/04/13 05:34:42;;;;;;;0.00;0.00;;;13.60;80.80;;;;;;4153399;28;20084;-65
2022/04/13 05:37:08;;;;;;;0.00;0.00;;;13.60;80.20;;;;;;4167057;28;20076;-71
2022/04/13 05:39:30;;;;;;;0.00;0.00;;;13.70;80.10;;;;;;4167122;28;20047;-70
2022/04/13 05:41:56;;;;;;;0.00;0.00;;;13.80;79.70;;;;;;4166484;28;20045;-70
2022/04/13 05:44:20;;;;;;;0.00;0.00;;;13.90;79.50;;;;;;4166626;28;20041;-72
2022/04/13 05:46:45;;;;;;;0.00;0.00;;;13.90;79.50;;;;;;4152187;28;20128;-73
2022/04/13 05:49:07;;;;;;;0.00;0.00;;;14.00;79.60;;;;;;4166652;28;20120;-69
2022/04/13 05:51:33;;;;;;;0.00;0.00;;;14.10;79.40;;;;;;4139627;28;20062;-70
2022/04/13 05:53:55;;;;;;;0.00;0.00;;;14.10;79.50;;;;;;4152831;28;20128;-70
2022/04/13 05:56:17;;;;;;;0.00;0.00;;;14.10;79.60;;;;;;4166431;28;20132;-72
2022/04/13 05:58:39;;;;;;;0.00;0.00;;;14.30;79.60;;;;;;4166083;28;20153;-70
2022/04/13 06:01:06;;;;;;;0.00;0.00;;;14.30;79.00;;;;;;4153009;28;20041;-71
2022/04/13 06:03:32;;;;;;;0.00;0.00;;;14.30;78.80;;;;;;4153500;28;20104;-71
2022/04/13 06:06:05;;;;;;;0.00;0.00;;;14.20;79.10;;;;;;4167074;28;20124;-72
2022/04/13 06:08:27;;;;;;;0.00;0.00;;;14.20;79.10;;;;;;4142845;28;20052;-69
2022/04/13 06:10:56;;;;;;;0.00;0.00;;;14.30;78.90;;;;;;4155593;28;20046;-70
2022/04/13 06:13:20;;;;;;;0.00;0.00;;;14.30;78.80;;;;;;4156653;28;20056;-71
2022/04/13 06:15:45;;;;;;;0.00;0.00;;;14.40;78.80;;;;;;4156417;28;20050;-69
2022/04/13 06:18:07;;;;;;;0.00;0.00;;;14.50;79.00;;;;;;4169778;28;20108;-70
2022/04/13 06:20:33;;;;;;;0.00;0.00;;;14.50;79.10;;;;;;4142456;28;20063;-69
2022/04/13 06:23:00;;;;;;;0.00;0.00;;;14.60;79.00;;;;;;4155774;28;20432;-71
2022/04/13 06:25:31;;;;;;;0.00;0.00;;;14.70;78.80;;;;;;4170011;28;20577;-69
2022/04/13 06:27:55;;;;;;;0.00;0.00;;;14.80;78.50;;;;;;4156110;28;20456;-70
2022/04/13 06:30:20;;;;;;;0.00;0.00;;;14.90;78.50;;;;;;4169406;28;20041;-71
2022/04/13 06:32:46;;;;;;;0.00;0.00;;;14.90;78.70;;;;;;4169192;28;20049;-68
2022/04/13 06:35:13;;;;;;;0.00;0.00;;;15.00;79.20;;;;;;4169489;28;20053;-71
2022/04/13 06:37:36;;;;;;;0.00;0.00;;;15.10;80.00;;;;;;4155512;28;20116;-72
2022/04/13 06:40:01;;;;;;;0.00;0.00;;;14.80;81.20;;;;;;4155922;28;20128;-72
2022/04/13 06:42:26;;;;;;;0.00;0.00;;;14.60;81.80;;;;;;4155880;28;20041;-69
2022/04/13 06:44:52;;;;;;;0.00;0.00;;;14.80;81.50;;;;;;4155324;28;20046;-68
2022/04/13 06:47:14;;;;;;;0.00;0.00;;;14.80;81.00;;;;;;4155638;28;20141;-67
2022/04/13 06:49:44;;;;;;;0.00;0.00;;;14.40;82.30;;;;;;4169458;28;20037;-68
2022/04/13 06:52:08;;;;;;;0.00;0.00;;;14.50;83.30;;;;;;4169349;28;20053;-71
2022/04/13 06:54:32;;;;;;;0.00;0.00;;;14.90;82.70;;;;;;4155684;28;20418;-68
2022/04/13 06:56:55;;;;;;;0.00;0.00;;;15.20;81.80;;;;;;4155173;28;20081;-69
2022/04/13 06:59:19;;;;;;;0.00;0.00;;;15.50;81.10;;;;;;4155319;28;20038;-69
2022/04/13 07:01:44;;;;;;;0.00;0.00;;;15.50;80.80;;;;;;4155676;28;20528;-71
2022/04/13 07:04:06;;;;;;;0.00;0.00;;;15.60;80.70;;;;;;4169160;28;20384;-72
2022/04/13 07:06:31;;;;;;;0.00;0.00;;;15.40;81.50;;;;;;4169278;28;20056;-70
2022/04/13 07:09:15;;;;;;;0.00;0.00;;;15.60;81.70;;;;;;4168654;28;20072;-70
2022/04/13 07:11:39;;;;;;;0.00;0.00;;;15.90;79.70;;;;;;4155550;28;20073;-69
2022/04/13 07:14:06;;;;;;;0.00;0.00;;;16.20;78.70;;;;;;4155144;28;20046;-69
2022/04/13 07:16:28;;;;;;;0.00;0.00;;;16.40;77.90;;;;;;4155326;28;20083;-71
2022/04/13 07:18:52;;;;;;;0.00;0.00;;;16.40;77.00;;;;;;4154016;28;20053;-66
2022/04/13 07:21:17;;;;;;;0.00;0.00;;;16.50;77.20;;;;;;4168940;28;20071;-71
2022/04/13 07:23:39;;;;;;;0.00;0.00;;;16.70;77.30;;;;;;4155184;28;20108;-68
2022/04/13 07:26:01;;;;;;;0.00;0.00;;;16.80;76.30;;;;;;4168780;28;20037;-70
2022/04/13 07:28:22;;;;;;;0.00;0.00;;;16.80;76.20;;;;;;4169033;28;20542;-71
2022/04/13 07:30:44;;;;;;;0.00;0.00;;;16.80;75.00;;;;;;4154609;28;20137;-70
2022/04/13 07:33:11;;;;;;;0.00;0.00;;;17.00;74.80;;;;;;4155144;28;20080;-68
2022/04/13 07:35:33;;;;;;;0.00;0.00;;;17.00;73.80;;;;;;4155056;28;20174;-70
2022/04/13 07:38:00;;;;;;;0.00;0.00;;;17.00;73.70;;;;;;4155275;28;20041;-71
2022/04/13 07:40:25;;;;;;;0.00;0.00;;;16.90;73.40;;;;;;4168372;28;20042;-70
2022/04/13 07:42:50;;;;;;;0.00;0.00;;;16.90;73.80;;;;;;4154673;28;20223;-70
2022/04/13 07:45:14;;;;;;;0.00;0.00;;;17.10;72.70;;;;;;4168455;28;20472;-69
2022/04/13 07:47:39;;;;;;;0.00;0.00;;;16.90;71.80;;;;;;4154869;28;20439;-69
2022/04/13 07:50:05;;;;;;;0.00;0.00;;;16.90;71.00;;;;;;4154700;28;20054;-69
2022/04/13 07:52:33;;;;;;;0.00;0.00;;;16.70;69.90;;;;;;4155207;28;20148;-69
2022/04/13 07:55:00;;;;;;;0.00;0.00;;;16.80;69.60;;;;;;4154496;28;20045;-71
2022/04/13 07:57:25;;;;;;;0.00;0.00;;;16.90;69.40;;;;;;4154735;28;20425;-69
2022/04/13 07:59:49;;;;;;;0.00;0.00;;;17.00;69.50;;;;;;4154223;28;20054;-70
2022/04/13 08:02:17;;;;;;;0.00;0.00;;;17.40;69.50;;;;;;4154516;28;20045;-71
2022/04/13 08:04:41;;;;;;;0.00;0.00;;;17.90;68.50;;;;;;4167937;28;20049;-70
2022/04/13 08:07:05;;;;;;;0.00;0.00;;;18.10;67.60;;;;;;4154079;28;20045;-66
2022/04/13 08:09:29;;;;;;;0.00;0.00;;;18.10;67.50;;;;;;4154386;28;20037;-71
2022/04/13 08:11:54;;;;;;;0.00;0.00;;;18.30;66.40;;;;;;4154110;28;20050;-68
2022/04/13 08:14:16;;;;;;;0.00;0.00;;;18.20;66.00;;;;;;4154160;28;20045;-71
2022/04/13 08:16:38;;;;;;;0.00;0.00;;;18.20;65.90;;;;;;4154424;28;20064;-70
2022/04/13 08:19:00;;;;;;;0.00;0.00;;;18.10;65.80;;;;;;4153783;28;20072;-70
2022/04/13 08:21:25;;;;;;;0.00;0.00;;;18.10;65.60;;;;;;4127277;28;20050;-70
2022/04/13 08:23:47;;;;;;;0.00;0.00;;;18.40;65.80;;;;;;4154368;28;20050;-69
2022/04/13 08:26:09;;;;;;;0.00;0.00;;;18.60;65.00;;;;;;4154084;28;20041;-68
2022/04/13 08:28:35;;;;;;;0.00;0.00;;;18.70;63.90;;;;;;4153984;28;20092;-67
2022/04/13 08:30:57;;;;;;;0.00;0.00;;;18.80;63.50;;;;;;4167355;28;20072;-68
2022/04/13 08:33:19;;;;;;;0.00;0.00;;;18.80;63.30;;;;;;4168052;28;20065;-69
2022/04/13 08:35:44;;;;;;;0.00;0.00;;;18.40;63.50;;;;;;4167702;28;20152;-68
2022/04/13 08:38:08;;;;;;;0.00;0.00;;;18.10;63.30;;;;;;4167595;28;20049;-68
2022/04/13 08:40:42;;;;;;;0.00;0.00;;;18.00;63.40;;;;;;4152762;28;20943;-69
2022/04/13 08:43:11;;;;;;;0.00;0.00;;;17.80;63.50;;;;;;4150736;28;20068;-69
2022/04/13 08:46:06;;;;;;;0.00;0.00;;;17.80;64.50;;;;;;4161607;28;20494;-69
2022/04/13 08:48:29;;;;;;;0.00;0.00;;;18.10;62.50;;;;;;4167595;28;20091;-67
2022/04/13 08:51:03;;;;;;;0.00;0.00;;;18.10;62.70;;;;;;4164509;28;20391;-69
2022/04/13 08:53:40;;;;;;;0.00;0.00;;;18.10;61.40;;;;;;4164917;28;20107;-70
2022/04/13 08:56:09;;;;;;;0.00;0.00;;;18.00;62.20;;;;;;4151001;28;20112;-70
2022/04/13 08:58:49;;;;;;;0.00;0.00;;;18.00;62.50;;;;;;4162062;28;20049;-68
2022/04/13 09:01:20;;;;;;;0.00;0.00;;;18.10;61.60;;;;;;4153400;28;20053;-68
2022/04/13 09:03:48;;;;;;;0.00;0.00;;;18.20;60.90;;;;;;4166416;28;20419;-68
2022/04/13 09:06:14;;;;;;;0.00;0.00;;;18.30;59.60;;;;;;4152951;28;20445;-71
2022/04/13 09:08:56;;;;;;;0.00;0.00;;;18.30;61.80;;;;;;4166978;28;20034;-70
2022/04/13 09:11:22;;;;;;;0.00;0.00;;;18.80;60.20;;;;;;4153268;28;20050;-69
2022/04/13 09:13:47;;;;;;;0.00;0.00;;;19.00;59.60;;;;;;4167214;28;20080;-69
2022/04/13 09:16:15;;;;;;;0.00;0.00;;;18.90;58.40;;;;;;4153427;28;20038;-70
2022/04/13 09:18:38;;;;;;;0.00;0.00;;;18.60;58.80;;;;;;4153538;28;20109;-71
2022/04/13 09:21:02;;;;;;;0.00;0.00;;;18.70;59.80;;;;;;4139127;28;20637;-68
2022/04/13 09:23:27;;;;;;;0.00;0.00;;;18.90;58.40;;;;;;4166350;28;20069;-68
2022/04/13 09:25:53;;;;;;;0.00;0.00;;;19.10;58.30;;;;;;4166952;28;20379;-70
2022/04/13 09:28:18;;;;;;;0.00;0.00;;;19.30;57.80;;;;;;4153261;28;20097;-70
2022/04/13 09:30:40;;;;;;;0.00;0.00;;;19.30;58.20;;;;;;4166177;28;20452;-66
2022/04/13 09:33:07;;;;;;;0.00;0.00;;;19.60;58.00;;;;;;4166826;28;20396;-68
2022/04/13 09:35:35;;;;;;;0.00;0.00;;;20.00;57.60;;;;;;4153204;28;20052;-68
2022/04/13 09:38:04;;;;;;;0.00;0.00;;;20.40;56.20;;;;;;4166695;28;20045;-68
2022/04/13 09:40:40;;;;;;;0.00;0.00;;;20.60;54.80;;;;;;4153278;28;20487;-69
2022/04/13 09:43:17;;;;;;;0.00;0.00;;;20.70;55.50;;;;;;4126754;28;20516;-70
2022/04/13 09:45:50;;;;;;;0.00;0.00;;;20.90;55.80;;;;;;4152887;28;20044;-67
2022/04/13 09:48:16;;;;;;;0.00;0.00;;;21.20;56.00;;;;;;4139326;28;20042;-70
2022/04/13 09:50:40;;;;;;;0.00;0.00;;;21.50;55.00;;;;;;4153071;28;20100;-67
2022/04/13 09:53:06;;;;;;;0.00;0.00;;;21.60;53.50;;;;;;4152702;28;20042;-72
2022/04/13 09:55:30;;;;;;;0.00;0.00;;;21.50;53.70;;;;;;4153264;28;20421;-71
2022/04/13 09:58:03;;;;;;;0.00;0.00;;;21.60;53.40;;;;;;4153146;28;20083;-70
2022/04/13 10:00:28;;;;;;;0.00;0.00;;;21.70;53.00;;;;;;4153066;28;20038;-72
2022/04/13 10:02:53;;;;;;;0.00;0.00;;;21.90;53.00;;;;;;4179842;28;20053;-67
2022/04/13 10:05:17;;;;;;;0.00;0.00;;;21.90;51.80;;;;;;4153129;28;20060;-68
2022/04/13 10:07:39;;;;;;;0.00;0.00;;;22.10;50.70;;;;;;4166540;28;20076;-71
2022/04/13 10:10:04;;;;;;;0.00;0.00;;;22.10;50.80;;;;;;4152757;28;20050;-67
2022/04/13 10:12:26;;;;;;;0.00;0.00;;;22.10;50.60;;;;;;4153027;28;20558;-68
2022/04/13 10:14:48;;;;;;;0.00;0.00;;;22.20;50.40;;;;;;4152400;28;20049;-67
2022/04/13 10:17:13;;;;;;;0.00;0.00;;;22.20;50.80;;;;;;4152728;28;20103;-69
2022/04/13 10:19:41;;;;;;;0.00;0.00;;;22.30;50.80;;;;;;4166613;28;20049;-70
2022/04/13 10:22:08;;;;;;;0.00;0.00;;;22.30;50.50;;;;;;4153042;28;20587;-69
2022/04/13 10:24:32;;;;;;;0.00;0.00;;;22.40;50.50;;;;;;4166598;28;20172;-71
2022/04/13 10:27:07;;;;;;;0.00;0.00;;;22.30;50.10;;;;;;4165766;28;20053;-68
2022/04/13 10:29:34;;;;;;;0.00;0.00;;;22.40;51.20;;;;;;4166470;28;20045;-71
2022/04/13 10:32:02;;;;;;;0.00;0.00;;;22.50;51.20;;;;;;4139182;28;20392;-69
2022/04/13 10:34:40;;;;;;;0.00;0.00;;;22.50;51.20;;;;;;4166356;28;20053;-68
2022/04/13 10:37:09;;;;;;;0.00;0.00;;;22.70;50.70;;;;;;4152345;28;20080;-67
2022/04/13 10:39:33;;;;;;;0.00;0.00;;;22.70;50.50;;;;;;4139183;28;20061;-70
2022/04/13 10:42:13;;;;;;;0.00;0.00;;;22.70;49.60;;;;;;4166339;28;20076;-68
2022/04/13 10:44:53;;;;;;;0.00;0.00;;;22.70;50.50;;;;;;4152671;28;20046;-68
2022/04/13 10:47:20;;;;;;;0.00;0.00;;;22.80;50.70;;;;;;4165813;28;20053;-68
2022/04/13 10:50:08;;;;;;;0.00;0.00;;;22.80;50.90;;;;;;4166076;28;20042;-68
2022/04/13 10:52:45;;;;;;;0.00;0.00;;;22.80;50.70;;;;;;4152435;28;20050;-69
2022/04/13 10:55:13;;;;;;;0.00;0.00;;;22.80;50.90;;;;;;4155259;28;20045;-70
2022/04/13 10:57:43;;;;;;;0.00;0.00;;;22.80;50.70;;;;;;4169239;28;20550;-69
2022/04/13 11:00:07;;;;;;;0.00;0.00;;;22.80;51.00;;;;;;4169003;28;20053;-69
2022/04/13 11:02:35;;;;;;;0.00;0.00;;;22.90;50.80;;;;;;4155486;28;20045;-68
2022/04/13 11:04:58;;;;;;;0.00;0.00;;;23.10;50.80;;;;;;4154976;28;20069;-69
2022/04/13 11:07:26;;;;;;;0.00;0.00;;;23.10;50.50;;;;;;4155010;28;20092;-68
2022/04/13 11:10:01;;;;;;;0.00;0.00;;;23.10;50.50;;;;;;4169065;28;20045;-67
2022/04/13 11:12:30;;;;;;;0.00;0.00;;;23.10;49.90;;;;;;4169042;28;20045;-68
2022/04/13 11:14:53;;;;;;;0.00;0.00;;;23.10;48.40;;;;;;4154730;28;20492;-69
2022/04/13 11:17:17;;;;;;;0.00;0.00;;;23.00;49.50;;;;;;4141810;28;20050;-70
2022/04/13 11:19:41;;;;;;;0.00;0.00;;;23.00;49.90;;;;;;4155077;28;20042;-69
2022/04/13 11:22:03;;;;;;;0.00;0.00;;;23.20;49.90;;;;;;4141920;28;20538;-70
2022/04/13 11:24:35;;;;;;;0.00;0.00;;;23.40;49.70;;;;;;4141741;28;20058;-69
2022/04/13 11:27:00;;;;;;;0.00;0.00;;;23.60;49.60;;;;;;4168161;28;20602;-70
2022/04/13 11:29:36;;;;;;;0.00;0.00;;;23.60;48.50;;;;;;4155122;28;20046;-68
2022/04/13 11:32:04;;;;;;;0.00;0.00;;;23.50;48.40;;;;;;4168717;28;20061;-68
2022/04/13 11:34:36;;;;;;;0.00;0.00;;;23.50;48.70;;;;;;4155009;28;20046;-71
2022/04/13 11:37:00;;;;;;;0.00;0.00;;;23.50;48.30;;;;;;4168268;28;20053;-70
2022/04/13 11:39:44;;;;;;;0.00;0.00;;;23.40;47.60;;;;;;4168686;28;20049;-69
2022/04/13 11:42:16;;;;;;;0.00;0.00;;;23.40;47.70;;;;;;4154898;28;20100;-72
2022/04/13 11:45:04;;;;;;;0.00;0.00;;;23.40;48.00;;;;;;4168538;28;20071;-68
2022/04/13 11:47:54;;;;;;;0.00;0.00;;;23.50;47.30;;;;;;4140887;28;20535;-68
2022/04/13 11:50:21;;;;;;;0.00;0.00;;;23.50;47.50;;;;;;4168583;28;20037;-70
2022/04/13 11:52:46;;;;;;;0.00;0.00;;;23.50;47.30;;;;;;4140581;28;20042;-71
2022/04/13 11:55:18;;;;;;;0.00;0.00;;;23.50;46.60;;;;;;4168655;28;20129;-69
2022/04/13 11:58:02;;;;;;;0.00;0.00;;;23.60;47.20;;;;;;4154728;28;20088;-69
2022/04/13 12:00:42;;;;;;;0.00;0.00;;;23.50;47.30;;;;;;4152297;28;20048;-69
2022/04/13 12:03:25;;;;;;;0.00;0.00;;;23.50;47.40;;;;;;4124609;28;20108;-70
2022/04/13 12:05:57;;;;;;;0.00;0.00;;;23.50;47.10;;;;;;4165404;28;20379;-71
2022/04/13 12:08:28;;;;;;;0.00;0.00;;;23.60;47.00;;;;;;4165566;28;20484;-69
2022/04/13 12:10:54;;;;;;;0.00;0.00;;;23.70;46.50;;;;;;4165102;28;20064;-68
2022/04/13 12:13:21;;;;;;;0.00;0.00;;;23.70;45.60;;;;;;4165196;28;20380;-70
2022/04/13 12:15:47;;;;;;;0.00;0.00;;;23.70;45.80;;;;;;4151473;28;20042;-68
2022/04/13 12:18:10;;;;;;;0.00;0.00;;;23.70;45.70;;;;;;4165510;28;20048;-71
2022/04/13 12:20:37;;;;;;;0.00;0.00;;;23.70;45.90;;;;;;4151611;28;20045;-71
2022/04/13 12:23:19;;;;;;;0.00;0.00;;;23.80;46.70;;;;;;4150934;28;20111;-71
2022/04/13 12:25:43;;;;;;;0.00;0.00;;;23.90;46.90;;;;;;4165226;28;20492;-69
2022/04/13 12:28:06;;;;;;;0.00;0.00;;;24.00;46.20;;;;;;4151214;28;20050;-69
2022/04/13 12:30:31;;;;;;;0.00;0.00;;;24.10;46.00;;;;;;4165295;28;20045;-68
2022/04/13 12:32:55;;;;;;;0.00;0.00;;;24.20;46.40;;;;;;4137160;28;20373;-69
2022/04/13 12:35:22;;;;;;;0.00;0.00;;;24.20;46.00;;;;;;4164276;28;20041;-69
2022/04/13 12:37:54;;;;;;;0.00;0.00;;;24.30;46.00;;;;;;4165149;28;20103;-70
2022/04/13 12:40:23;;;;;;;0.00;0.00;;;24.40;46.70;;;;;;4165062;28;20060;-69
2022/04/13 12:42:50;;;;;;;0.00;0.00;;;24.40;45.80;;;;;;4150933;28;20054;-70
2022/04/13 12:45:14;;;;;;;0.00;0.00;;;24.50;46.40;;;;;;4150924;28;20041;-70